Time;durP1;ratioP1;P1;durP2;ratioP2;P2;SDS_P1;SDS_P2;PMS_P1;PMS_P2;Temp;Humidity;BMP_temperature;BMP_pressure;BME280_temperature;BME280_humidity;BME280_pressure;Samples;Min_cycle;Max_cycle;Signal;HPM_P1;HPM_P2
2023/10/24 00:00:04;;;;;;;25.20;14.20;;;;;;;8.87;87.28;100023.67;131139;1254;106545;-78
2023/10/24 00:03:37;;;;;;;22.20;14.30;;;;;;;8.83;87.29;100028.42;131230;1251;110287;-78
2023/10/24 00:06:43;;;;;;;24.10;14.20;;;;;;;8.81;87.18;100027.27;131102;1265;107390;-77
2023/10/24 00:09:48;;;;;;;22.80;13.80;;;;;;;8.76;87.18;100023.28;131100;1252;106600;-78
2023/10/24 00:12:54;;;;;;;20.20;12.50;;;;;;;8.72;87.33;100021.37;131049;1250;106777;-78
2023/10/24 00:16:00;;;;;;;23.50;14.40;;;;;;;8.72;87.30;100024.38;131200;1250;106910;-78
2023/10/24 00:19:06;;;;;;;25.90;15.70;;;;;;;8.72;87.49;100021.36;131153;1253;109056;-78
2023/10/24 00:22:11;;;;;;;24.70;15.70;;;;;;;8.75;87.37;100024.16;131143;1253;107701;-77
2023/10/24 00:25:17;;;;;;;24.50;16.10;;;;;;;8.74;87.10;100023.45;131156;1250;108464;-77
2023/10/24 00:28:22;;;;;;;25.00;15.70;;;;;;;8.73;87.41;100023.80;131165;1253;108686;-78
2023/10/24 00:31:28;;;;;;;27.00;17.40;;;;;;;8.74;87.25;100019.98;131014;1253;108582;-77
2023/10/24 00:34:34;;;;;;;26.10;16.60;;;;;;;8.76;87.37;100028.80;131128;1253;107400;-77
2023/10/24 00:37:39;;;;;;;26.50;15.60;;;;;;;8.73;87.37;100028.55;131100;1250;108565;-78
2023/10/24 00:40:45;;;;;;;24.70;14.10;;;;;;;8.69;87.23;100023.65;131089;1251;108867;-78
2023/10/24 00:43:50;;;;;;;28.00;16.60;;;;;;;8.67;87.29;100026.63;131101;1250;108405;-78
2023/10/24 00:46:56;;;;;;;24.80;16.40;;;;;;;8.69;87.50;100025.02;130935;1253;270893;-78
2023/10/24 00:50:02;;;;;;;28.60;16.40;;;;;;;8.72;87.43;100023.35;131182;1253;107520;-78
2023/10/24 00:53:08;;;;;;;27.30;17.40;;;;;;;8.73;87.49;100021.80;131008;1250;109067;-78
2023/10/24 00:56:14;;;;;;;26.80;16.90;;;;;;;8.73;87.61;100025.20;131155;1250;108636;-78
2023/10/24 00:59:24;;;;;;;26.90;17.10;;;;;;;8.72;87.43;100022.62;131165;1253;108819;-77
2023/10/24 01:02:30;;;;;;;25.70;17.20;;;;;;;8.71;87.54;100017.02;131191;1253;108674;-77
2023/10/24 01:05:38;;;;;;;25.30;15.40;;;;;;;8.70;87.35;100015.21;131202;1253;108683;-78
2023/10/24 01:08:44;;;;;;;24.80;14.40;;;;;;;8.68;87.40;100013.40;131080;1252;108774;-77
2023/10/24 01:11:50;;;;;;;25.90;15.80;;;;;;;8.69;87.41;100016.23;131172;1254;108353;-78
2023/10/24 01:14:56;;;;;;;27.10;16.50;;;;;;;8.69;87.29;100017.04;131042;1254;108709;-77
2023/10/24 01:18:03;;;;;;;26.20;16.20;;;;;;;8.72;87.30;100011.29;131080;1253;106922;-77
2023/10/24 01:21:09;;;;;;;27.90;16.00;;;;;;;8.74;87.11;100005.46;131134;1254;108257;-77
2023/10/24 01:24:17;;;;;;;26.20;17.30;;;;;;;8.73;87.21;100004.63;131131;1251;108383;-77
2023/10/24 01:27:26;;;;;;;24.90;16.10;;;;;;;8.69;87.07;100003.57;131249;1253;108360;-77
2023/10/24 01:30:31;;;;;;;27.50;16.40;;;;;;;8.64;86.92;100003.35;131118;1263;108571;-77
2023/10/24 01:33:37;;;;;;;24.60;16.40;;;;;;;8.59;86.87;100007.04;131166;1250;108509;-78
2023/10/24 01:36:43;;;;;;;23.30;15.00;;;;;;;8.54;86.67;100002.71;131144;1253;108426;-78
2023/10/24 01:39:48;;;;;;;21.40;13.70;;;;;;;8.49;86.84;99998.16;131092;1251;108477;-77
2023/10/24 01:42:54;;;;;;;24.60;15.90;;;;;;;8.48;86.66;99995.48;131046;1253;107678;-77
2023/10/24 01:45:59;;;;;;;22.70;16.00;;;;;;;8.46;86.59;99998.64;131129;1250;108518;-78
2023/10/24 01:49:06;;;;;;;26.10;16.80;;;;;;;8.45;86.61;100001.02;131099;1253;108804;-77
2023/10/24 01:52:12;;;;;;;25.70;17.00;;;;;;;8.43;86.62;100006.34;131061;1253;107805;-78
2023/10/24 01:55:17;;;;;;;24.70;17.10;;;;;;;8.40;86.47;100002.39;131153;1253;108631;-78
2023/10/24 01:58:23;;;;;;;24.10;16.20;;;;;;;8.34;86.19;100003.01;131050;1251;107993;-78
2023/10/24 02:01:29;;;;;;;23.40;16.20;;;;;;;8.27;86.30;100008.95;131162;1253;108721;-77
2023/10/24 02:04:36;;;;;;;27.70;17.10;;;;;;;8.22;86.27;100011.52;131156;1251;107739;-78
2023/10/24 02:07:42;;;;;;;28.30;18.00;;;;;;;8.18;86.60;100012.11;131155;1253;108690;-78
2023/10/24 02:10:50;;;;;;;24.80;16.20;;;;;;;8.14;86.56;100009.27;131039;1253;108825;-78
2023/10/24 02:13:56;;;;;;;23.30;14.50;;;;;;;8.12;86.77;100005.57;131151;1253;107971;-79
2023/10/24 02:17:01;;;;;;;24.50;15.90;;;;;;;8.13;86.73;100004.02;131170;1253;109563;-78
2023/10/24 02:20:09;;;;;;;23.90;15.80;;;;;;;8.14;86.74;99993.67;131065;1253;108689;-78
2023/10/24 02:23:14;;;;;;;25.80;16.10;;;;;;;8.14;86.67;99997.88;131189;1250;108341;-78
2023/10/24 02:26:22;;;;;;;26.20;15.80;;;;;;;8.11;86.49;99996.64;131178;1255;108445;-77
2023/10/24 02:29:28;;;;;;;25.80;14.90;;;;;;;8.06;86.63;99990.32;131072;1250;106710;-78
2023/10/24 02:32:33;;;;;;;23.90;15.50;;;;;;;8.04;86.69;99988.17;131211;1250;107064;-80
2023/10/24 02:35:39;;;;;;;22.80;15.60;;;;;;;8.03;86.53;99985.66;131133;1249;107727;-78
2023/10/24 02:38:44;;;;;;;25.90;16.80;;;;;;;8.00;86.44;99980.23;131158;1253;107714;-78
2023/10/24 02:41:50;;;;;;;25.60;15.00;;;;;;;7.94;86.40;99977.61;131061;1253;108240;-81
2023/10/24 02:44:56;;;;;;;22.80;14.00;;;;;;;7.91;86.38;99978.99;131247;1253;107560;-77
2023/10/24 02:48:02;;;;;;;23.40;15.00;;;;;;;7.91;86.42;99981.67;131077;1254;108470;-78
2023/10/24 02:51:07;;;;;;;24.60;15.70;;;;;;;7.92;86.34;99978.86;131127;1253;106687;-77
2023/10/24 02:54:13;;;;;;;23.20;14.50;;;;;;;7.95;86.17;99972.24;131161;1253;106650;-78
2023/10/24 02:57:19;;;;;;;22.70;15.10;;;;;;;7.97;86.25;99970.27;131130;1254;108428;-78
2023/10/24 03:00:25;;;;;;;20.80;14.60;;;;;;;7.98;86.29;99970.34;131143;1253;107616;-77
2023/10/24 03:03:30;;;;;;;21.70;14.50;;;;;;;7.97;86.08;99973.30;131032;1256;106343;-78
2023/10/24 03:06:36;;;;;;;24.70;15.20;;;;;;;7.95;86.06;99964.05;131030;1254;108749;-78
2023/10/24 03:09:42;;;;;;;24.00;14.30;;;;;;;7.92;86.10;99963.13;131076;1255;108726;-77
2023/10/24 03:12:49;;;;;;;20.30;13.40;;;;;;;7.90;86.24;99958.95;131089;1254;108628;-78
2023/10/24 03:15:54;;;;;;;19.00;12.30;;;;;;;7.88;86.19;99957.84;130888;1255;107051;-78
2023/10/24 03:19:02;;;;;;;24.40;14.20;;;;;;;7.87;86.16;99958.95;131022;1254;107699;-77
2023/10/24 03:22:07;;;;;;;26.00;16.00;;;;;;;7.89;86.09;99954.72;131050;1254;109059;-78
2023/10/24 03:25:13;;;;;;;25.20;14.70;;;;;;;7.91;86.21;99950.50;131025;1250;108421;-78
2023/10/24 03:28:19;;;;;;;22.20;14.60;;;;;;;7.92;86.28;99947.93;131077;1254;107729;-78
2023/10/24 03:31:24;;;;;;;24.00;14.90;;;;;;;7.89;86.03;99949.62;131026;1253;108480;-79
2023/10/24 03:34:31;;;;;;;21.50;14.50;;;;;;;7.85;85.94;99954.69;131084;1256;108766;-78
2023/10/24 03:37:36;;;;;;;22.40;15.00;;;;;;;7.82;86.06;99949.30;131110;1250;108711;-78
2023/10/24 03:40:42;;;;;;;23.70;15.50;;;;;;;7.79;85.97;99947.27;130984;1250;108436;-78
2023/10/24 03:43:48;;;;;;;19.20;12.50;;;;;;;7.77;86.11;99948.39;130992;1254;108716;-80
2023/10/24 03:46:54;;;;;;;21.70;12.20;;;;;;;7.73;85.97;99948.24;131041;1250;108762;-78
2023/10/24 03:50:00;;;;;;;19.90;13.20;;;;;;;7.71;85.89;99949.70;131001;1254;108702;-78
2023/10/24 03:53:05;;;;;;;19.10;12.70;;;;;;;7.71;85.85;99946.82;131016;1254;106586;-80
2023/10/24 03:56:11;;;;;;;22.50;14.50;;;;;;;7.73;85.80;99939.58;131225;1254;107011;-78
2023/10/24 03:59:17;;;;;;;20.80;13.60;;;;;;;7.73;85.87;99935.50;131076;1254;108875;-78
2023/10/24 04:02:22;;;;;;;21.50;13.70;;;;;;;7.71;85.87;99929.62;131041;1256;108478;-78
2023/10/24 04:05:31;;;;;;;21.90;14.50;;;;;;;7.70;85.96;99917.86;130888;1251;108406;-78
2023/10/24 04:08:37;;;;;;;22.20;14.20;;;;;;;7.68;85.96;99912.95;131094;1254;107765;-78
2023/10/24 04:11:43;;;;;;;27.20;14.70;;;;;;;7.67;85.91;99912.14;131049;1256;106618;-78
2023/10/24 04:14:49;;;;;;;19.10;12.30;;;;;;;7.66;86.11;99908.15;131070;1254;107230;-78
2023/10/24 04:17:54;;;;;;;18.20;11.20;;;;;;;7.67;85.99;99914.13;130949;1254;107894;-78
2023/10/24 04:21:00;;;;;;;19.90;12.50;;;;;;;7.68;85.90;99914.85;131086;1261;108493;-78
2023/10/24 04:24:07;;;;;;;19.70;12.70;;;;;;;7.74;86.16;99919.47;131090;1256;108506;-78
2023/10/24 04:27:13;;;;;;;21.60;14.20;;;;;;;7.77;85.83;99921.64;131042;1255;108678;-78
2023/10/24 04:30:18;;;;;;;23.90;15.10;;;;;;;7.79;85.77;99929.11;130989;1256;107711;-78
2023/10/24 04:33:24;;;;;;;26.00;16.60;;;;;;;7.79;85.83;99932.77;131090;1256;108633;-78
2023/10/24 04:36:30;;;;;;;23.90;15.20;;;;;;;7.79;85.75;99932.46;131023;1256;108590;-79
2023/10/24 04:39:35;;;;;;;20.60;13.80;;;;;;;7.77;85.72;99928.78;131044;1260;108154;-78
2023/10/24 04:42:41;;;;;;;17.80;12.40;;;;;;;7.73;85.62;99927.38;131068;1254;108820;-78
2023/10/24 04:45:47;;;;;;;19.40;13.10;;;;;;;7.69;85.85;99929.16;131091;1254;106670;-79
2023/10/24 04:48:52;;;;;;;17.10;11.40;;;;;;;7.65;85.70;99932.19;131044;1250;106847;-79
2023/10/24 04:51:58;;;;;;;16.30;10.30;;;;;;;7.61;85.76;99933.19;131091;1256;108706;-78
2023/10/24 04:55:04;;;;;;;17.70;12.10;;;;;;;7.61;85.74;99936.40;131122;1256;106917;-80
2023/10/24 04:58:10;;;;;;;17.70;12.40;;;;;;;7.62;85.71;99941.30;130962;1254;107675;-79
2023/10/24 05:01:16;;;;;;;17.80;11.90;;;;;;;7.65;85.72;99940.83;131112;1255;106748;-80
2023/10/24 05:04:21;;;;;;;17.30;11.80;;;;;;;7.66;85.82;99947.13;131060;1255;108808;-78
2023/10/24 05:07:27;;;;;;;17.30;12.10;;;;;;;7.67;85.65;99951.30;130998;1256;108606;-80
2023/10/24 05:10:33;;;;;;;17.80;12.40;;;;;;;7.66;85.70;99950.27;131011;1255;108688;-79
2023/10/24 05:13:38;;;;;;;15.90;11.70;;;;;;;7.67;85.66;99951.10;131070;1250;107416;-80
2023/10/24 05:16:44;;;;;;;15.00;11.50;;;;;;;7.65;85.63;99948.29;131098;1255;108658;-78
2023/10/24 05:19:49;;;;;;;15.60;10.50;;;;;;;7.63;85.81;99947.20;130999;1256;107848;-79
2023/10/24 05:22:55;;;;;;;14.20;9.80;;;;;;;7.62;85.83;99950.65;130974;1255;108652;-78
2023/10/24 05:26:01;;;;;;;15.20;10.70;;;;;;;7.63;85.79;99958.40;131372;1250;106805;-78
2023/10/24 05:29:06;;;;;;;16.20;11.10;;;;;;;7.65;85.98;99956.89;135279;1250;108627;-78
2023/10/24 05:32:12;;;;;;;15.90;11.80;;;;;;;7.70;85.75;99950.30;135263;1250;107667;-78
2023/10/24 05:35:18;;;;;;;16.60;11.60;;;;;;;7.74;85.74;99950.12;135254;1250;108554;-78
2023/10/24 05:38:23;;;;;;;17.20;11.40;;;;;;;7.77;85.69;99948.27;135246;1250;107717;-78
2023/10/24 05:41:29;;;;;;;14.70;11.10;;;;;;;7.77;85.77;99953.12;131188;1256;107630;-77
2023/10/24 05:44:34;;;;;;;14.70;11.00;;;;;;;7.82;85.88;99942.95;130991;1256;108881;-79
2023/10/24 05:47:40;;;;;;;16.10;11.90;;;;;;;7.85;85.76;99941.40;130932;1250;106693;-78
2023/10/24 05:50:46;;;;;;;14.80;9.90;;;;;;;7.88;85.81;99938.00;130960;1250;107712;-78
2023/10/24 05:53:51;;;;;;;14.90;9.80;;;;;;;7.89;85.86;99947.17;130942;1256;106564;-78
2023/10/24 05:56:57;;;;;;;27.30;18.90;;;;;;;7.92;85.96;99942.55;130995;1254;107412;-78
2023/10/24 06:00:03;;;;;;;24.40;16.30;;;;;;;7.98;86.18;99940.05;130951;1256;107670;-77
2023/10/24 06:03:13;;;;;;;24.10;16.20;;;;;;;8.08;86.24;99941.62;131129;1254;107786;-78
2023/10/24 06:06:20;;;;;;;25.60;16.40;;;;;;;8.16;86.20;99939.57;130921;1256;108634;-78
2023/10/24 06:09:25;;;;;;;25.40;16.90;;;;;;;8.23;86.18;99937.48;130972;1256;107607;-81
2023/10/24 06:12:31;;;;;;;23.10;16.00;;;;;;;8.29;86.12;99936.45;132165;1253;109123;-79
2023/10/24 06:15:37;;;;;;;25.20;16.20;;;;;;;8.32;86.24;99934.17;131622;1254;107839;-78
2023/10/24 06:18:42;;;;;;;25.20;15.20;;;;;;;8.36;86.43;99938.64;131138;1250;106894;-78
2023/10/24 06:21:48;;;;;;;23.20;14.50;;;;;;;8.41;86.53;99938.00;130998;1267;108523;-78
2023/10/24 06:24:54;;;;;;;23.60;16.00;;;;;;;8.47;86.86;99935.11;130996;1254;107195;-78
2023/10/24 06:28:00;;;;;;;22.60;16.30;;;;;;;8.55;86.77;99935.22;131529;1254;107213;-78
2023/10/24 06:31:06;;;;;;;24.50;15.40;;;;;;;8.66;87.03;99938.46;130968;1255;108614;-78
2023/10/24 06:34:11;;;;;;;22.10;14.40;;;;;;;8.76;86.98;99938.85;130999;1256;108669;-78
2023/10/24 06:37:17;;;;;;;18.60;12.90;;;;;;;8.85;86.98;99935.85;131047;1255;107246;-78
2023/10/24 06:40:23;;;;;;;24.40;15.90;;;;;;;8.93;87.09;99932.98;131030;1256;108648;-79
2023/10/24 06:43:29;;;;;;;22.10;14.80;;;;;;;8.99;87.16;99935.40;130990;1256;106582;-78
2023/10/24 06:46:34;;;;;;;19.10;12.40;;;;;;;9.03;87.51;99932.63;130982;1256;107829;-78
2023/10/24 06:49:40;;;;;;;24.20;14.90;;;;;;;9.11;87.79;99934.76;131039;1251;108740;-78
2023/10/24 06:52:45;;;;;;;26.10;15.70;;;;;;;9.20;87.84;99934.45;131006;1256;108442;-78
2023/10/24 06:55:51;;;;;;;21.90;15.10;;;;;;;9.28;88.14;99929.30;131007;1256;108496;-79
2023/10/24 06:58:57;;;;;;;23.20;14.40;;;;;;;9.39;88.52;99929.52;130969;1255;107522;-79
2023/10/24 07:02:02;;;;;;;23.50;14.80;;;;;;;9.48;88.32;99925.95;130972;1256;106323;-79
2023/10/24 07:05:08;;;;;;;24.40;14.50;;;;;;;9.56;88.57;99917.34;131023;1250;108578;-77
2023/10/24 07:08:14;;;;;;;20.80;13.40;;;;;;;9.64;88.76;99911.17;130989;1256;106403;-78
2023/10/24 07:11:20;;;;;;;24.20;15.10;;;;;;;9.75;89.10;99916.11;130981;1256;106798;-78
2023/10/24 07:14:25;;;;;;;20.80;14.30;;;;;;;9.87;89.23;99912.90;131039;1250;106717;-78
2023/10/24 07:17:31;;;;;;;19.00;13.90;;;;;;;10.03;89.17;99918.08;130972;1256;107745;-78
2023/10/24 07:20:39;;;;;;;21.30;14.00;;;;;;;10.18;89.40;99920.73;131069;1255;108652;-78
2023/10/24 07:23:44;;;;;;;24.80;15.60;;;;;;;10.32;89.85;99917.55;131101;1251;108562;-78
2023/10/24 07:26:50;;;;;;;22.20;15.40;;;;;;;10.45;89.73;99908.55;130934;1256;109299;-79
2023/10/24 07:29:56;;;;;;;22.50;14.70;;;;;;;10.61;89.92;99900.47;130956;1256;108567;-78
2023/10/24 07:33:01;;;;;;;18.80;13.70;;;;;;;10.78;89.54;99884.64;131069;1266;106185;-78
2023/10/24 07:36:09;;;;;;;19.10;13.20;;;;;;;10.92;89.75;99871.19;131059;1256;108016;-78
2023/10/24 07:39:15;;;;;;;17.80;12.30;;;;;;;11.02;89.75;99875.87;131012;1256;108642;-78
2023/10/24 07:42:21;;;;;;;14.00;11.40;;;;;;;11.08;89.71;99870.36;131066;1256;108494;-78
2023/10/24 07:45:27;;;;;;;21.40;11.50;;;;;;;11.10;89.80;99864.65;130974;1256;107562;-78
2023/10/24 07:48:32;;;;;;;14.50;10.10;;;;;;;11.12;90.14;99846.45;131028;1250;107831;-78
2023/10/24 07:51:38;;;;;;;13.70;10.60;;;;;;;11.17;90.27;99829.71;130970;1256;106755;-79
2023/10/24 07:54:43;;;;;;;14.60;11.10;;;;;;;11.23;90.11;99836.26;131003;1256;108760;-78
2023/10/24 07:57:51;;;;;;;15.50;10.50;;;;;;;11.28;90.34;99850.75;131050;1255;107778;-78
2023/10/24 08:00:57;;;;;;;15.60;10.80;;;;;;;11.39;90.67;99858.86;131056;1256;106887;-78
2023/10/24 08:04:03;;;;;;;14.60;10.70;;;;;;;11.51;90.66;99854.70;131138;1256;108571;-78
2023/10/24 08:07:09;;;;;;;15.20;10.90;;;;;;;11.61;90.57;99847.86;131018;1250;105979;-79
2023/10/24 08:10:16;;;;;;;11.80;9.60;;;;;;;11.70;90.70;99831.19;131083;1256;107396;-78
2023/10/24 08:13:21;;;;;;;15.20;10.40;;;;;;;11.82;90.84;99826.84;130989;1255;108603;-78
2023/10/24 08:16:27;;;;;;;13.70;10.50;;;;;;;11.95;90.81;99835.55;131037;1256;106497;-77
2023/10/24 08:19:33;;;;;;;21.70;11.90;;;;;;;12.07;90.83;99845.48;130978;1256;107800;-78
2023/10/24 08:22:38;;;;;;;29.00;15.80;;;;;;;12.16;91.04;99855.36;131002;1257;108330;-77
2023/10/24 08:25:44;;;;;;;32.70;17.00;;;;;;;12.24;90.92;99855.52;130974;1256;106731;-78
2023/10/24 08:28:49;;;;;;;25.80;14.80;;;;;;;12.29;91.13;99854.95;131015;1264;107714;-81
2023/10/24 08:31:55;;;;;;;23.90;13.50;;;;;;;12.36;91.10;99850.37;131026;1255;107093;-80
2023/10/24 08:35:00;;;;;;;21.80;14.30;;;;;;;12.44;90.98;99847.15;131015;1256;107787;-80
2023/10/24 08:38:06;;;;;;;18.10;12.90;;;;;;;12.54;91.12;99841.73;131181;1256;108677;-79
2023/10/24 08:41:12;;;;;;;22.60;14.00;;;;;;;12.64;91.04;99835.13;131030;1256;107534;-78
2023/10/24 08:44:18;;;;;;;20.70;14.40;;;;;;;12.74;91.06;99836.30;131074;1256;107039;-79
2023/10/24 08:47:25;;;;;;;19.70;13.70;;;;;;;12.84;90.91;99832.21;131104;1251;106512;-79
2023/10/24 08:50:31;;;;;;;21.10;13.10;;;;;;;12.89;90.53;99821.80;131022;1256;107652;-79
2023/10/24 08:53:37;;;;;;;17.60;13.20;;;;;;;12.94;90.67;99823.61;131019;1256;107734;-78
2023/10/24 08:56:45;;;;;;;16.20;11.20;;;;;;;13.02;90.82;99830.31;130998;1255;105570;-78
2023/10/24 08:59:53;;;;;;;17.60;11.90;;;;;;;13.14;91.10;99824.05;131039;1257;106889;-80
2023/10/24 09:03:00;;;;;;;16.30;11.80;;;;;;;13.28;90.85;99827.34;131081;1255;108627;-79
2023/10/24 09:06:07;;;;;;;17.60;12.10;;;;;;;13.40;91.12;99827.58;130982;1256;106969;-79
2023/10/24 09:09:14;;;;;;;16.50;12.40;;;;;;;13.48;90.80;99820.48;131008;1254;108706;-79
2023/10/24 09:12:19;;;;;;;16.40;11.70;;;;;;;13.50;90.76;99808.77;130944;1251;107610;-79
2023/10/24 09:15:25;;;;;;;14.00;10.40;;;;;;;13.48;90.50;99804.41;130931;1256;107671;-79
2023/10/24 09:18:31;;;;;;;14.60;10.20;;;;;;;13.46;90.87;99802.81;131006;1256;108570;-79
2023/10/24 09:21:37;;;;;;;13.60;9.80;;;;;;;13.48;91.15;99799.38;130998;1256;106618;-79
2023/10/24 09:24:46;;;;;;;15.50;11.40;;;;;;;13.51;91.07;99800.96;130966;1258;108432;-79
2023/10/24 09:27:52;;;;;;;14.00;9.90;;;;;;;13.53;91.08;99789.70;130999;1256;108650;-78
2023/10/24 09:30:59;;;;;;;12.50;9.30;;;;;;;13.53;91.11;99782.23;130934;1257;107823;-78
2023/10/24 09:34:05;;;;;;;11.90;8.60;;;;;;;13.52;91.21;99775.55;130993;1256;107482;-78
2023/10/24 09:37:13;;;;;;;12.10;8.30;;;;;;;13.50;91.12;99766.64;130837;1256;106377;-80
2023/10/24 09:40:18;;;;;;;14.50;8.00;;;;;;;13.52;91.39;99757.88;131064;1256;107671;-78
2023/10/24 09:43:26;;;;;;;11.70;7.80;;;;;;;13.54;91.24;99748.14;130987;1256;107299;-78
2023/10/24 09:46:32;;;;;;;10.60;7.40;;;;;;;13.56;91.11;99739.27;130975;1256;107583;-78
2023/10/24 09:49:38;;;;;;;10.20;7.40;;;;;;;13.59;90.94;99728.98;130984;1262;108646;-78
2023/10/24 09:52:45;;;;;;;12.00;7.60;;;;;;;13.56;90.86;99725.33;131048;1260;108616;-78
2023/10/24 09:55:51;;;;;;;10.10;7.10;;;;;;;13.55;91.08;99720.67;130967;1264;108532;-79
2023/10/24 09:58:56;;;;;;;10.60;6.70;;;;;;;13.57;90.62;99713.41;131027;1250;108635;-80
2023/10/24 10:02:04;;;;;;;9.70;6.40;;;;;;;13.60;90.47;99702.56;131055;1255;107607;-78
2023/10/24 10:05:10;;;;;;;11.10;7.10;;;;;;;13.67;90.38;99698.86;131044;1250;108518;-78
2023/10/24 10:08:17;;;;;;;9.10;6.60;;;;;;;13.72;90.29;99695.54;130997;1255;108681;-79
2023/10/24 10:11:26;;;;;;;11.40;7.10;;;;;;;13.77;90.37;99692.95;130982;1255;105774;-79
2023/10/24 10:14:39;;;;;;;8.90;6.10;;;;;;;13.76;89.76;99686.50;130965;1264;107462;-78
2023/10/24 10:17:54;;;;;;;8.50;5.50;;;;;;;13.75;89.83;99676.04;131075;1265;106617;-78
2023/10/24 10:21:11;;;;;;;7.60;5.60;;;;;;;13.80;89.73;99677.77;130956;1257;107630;-78
2023/10/24 10:24:51;;;;;;;8.50;5.00;;;;;;;13.87;89.81;99674.42;131040;1257;107952;-78
2023/10/24 10:28:06;;;;;;;7.60;5.40;;;;;;;13.98;89.62;99669.52;130941;1257;108622;-78
2023/10/24 10:31:28;;;;;;;8.00;4.90;;;;;;;14.05;89.16;99665.80;131021;1257;108686;-78
2023/10/24 10:34:37;;;;;;;7.40;5.10;;;;;;;14.08;89.05;99666.95;131074;1262;106560;-78
2023/10/24 10:38:00;;;;;;;9.30;5.50;;;;;;;14.10;89.18;99661.84;130993;1256;107779;-79
2023/10/24 10:41:42;;;;;;;7.80;4.60;;;;;;;14.14;89.08;99662.27;130953;1254;108633;-79
2023/10/24 10:44:48;;;;;;;7.40;4.90;;;;;;;14.21;89.09;99658.27;130989;1264;107671;-79
2023/10/24 10:47:55;;;;;;;10.70;5.10;;;;;;;14.28;88.76;99660.91;131005;1254;108647;-79
2023/10/24 10:51:06;;;;;;;6.00;4.40;;;;;;;14.37;88.82;99663.63;131027;1255;107632;-78
2023/10/24 10:54:21;;;;;;;6.90;5.00;;;;;;;14.42;88.62;99659.17;130993;1256;107096;-80
2023/10/24 10:57:33;;;;;;;10.20;4.80;;;;;;;14.44;88.58;99657.84;131043;1256;107742;-79
2023/10/24 11:00:43;;;;;;;;;;;;;;;14.46;88.61;99667.11;131011;1256;107809;-80
2023/10/24 11:03:49;;;;;;;9.10;4.90;;;;;;;14.45;88.34;99662.39;131031;1256;106993;-79
2023/10/24 11:06:56;;;;;;;9.70;4.90;;;;;;;14.43;88.38;99654.42;131029;1256;106950;-80
2023/10/24 11:10:16;;;;;;;7.10;4.90;;;;;;;14.43;88.17;99651.38;130990;1264;107097;-79
2023/10/24 11:13:40;;;;;;;6.20;4.60;;;;;;;14.46;88.26;99647.81;130983;1257;107707;-79
2023/10/24 11:16:48;;;;;;;8.60;4.70;;;;;;;14.51;88.36;99642.04;131044;1256;107759;-79
2023/10/24 11:19:55;;;;;;;6.40;4.40;;;;;;;14.59;88.47;99652.45;131048;1259;106546;-79
2023/10/24 11:23:01;;;;;;;8.90;5.20;;;;;;;14.67;88.25;99664.47;131030;1257;106810;-79
2023/10/24 11:26:06;;;;;;;7.20;5.50;;;;;;;14.71;88.00;99668.91;131042;1256;107460;-79
2023/10/24 11:29:14;;;;;;;7.10;4.80;;;;;;;14.76;88.28;99652.34;130961;1256;107883;-78
2023/10/24 11:32:20;;;;;;;6.60;4.50;;;;;;;14.78;88.25;99639.84;131049;1256;107281;-78
2023/10/24 11:35:26;;;;;;;7.80;4.90;;;;;;;14.83;87.83;99641.09;130973;1256;107746;-78
2023/10/24 11:38:34;;;;;;;8.00;4.70;;;;;;;14.85;87.00;99626.21;130978;1256;107382;-78
2023/10/24 11:41:39;;;;;;;9.00;5.00;;;;;;;14.88;86.88;99612.92;130968;1263;107777;-78
2023/10/24 11:44:45;;;;;;;7.30;5.00;;;;;;;14.89;86.64;99599.86;131048;1263;108488;-78
2023/10/24 11:47:55;;;;;;;7.40;5.20;;;;;;;14.89;86.90;99588.13;130931;1257;107771;-80
2023/10/24 11:51:03;;;;;;;8.00;5.50;;;;;;;14.88;86.79;99578.41;130987;1257;108553;-81
2023/10/24 11:54:10;;;;;;;8.60;6.00;;;;;;;14.86;87.13;99565.89;130997;1257;108596;-80
2023/10/24 11:57:15;;;;;;;9.30;6.90;;;;;;;14.85;86.99;99566.05;131210;1264;107113;-80
2023/10/24 12:00:22;;;;;;;7.80;5.60;;;;;;;14.86;86.72;99561.83;131128;1264;108603;-78
2023/10/24 12:03:27;;;;;;;7.40;5.50;;;;;;;14.90;86.66;99555.86;131053;1257;108475;-81
2023/10/24 12:06:33;;;;;;;8.30;5.90;;;;;;;14.99;86.67;99550.09;131061;1264;107261;-78
2023/10/24 12:09:38;;;;;;;7.00;5.40;;;;;;;15.08;86.49;99553.98;130992;1256;106865;-78
2023/10/24 12:12:45;;;;;;;7.00;5.50;;;;;;;15.15;86.13;99559.77;130970;1264;106432;-78
2023/10/24 12:15:51;;;;;;;7.40;5.40;;;;;;;15.18;86.27;99565.21;131009;1256;106654;-78
2023/10/24 12:18:58;;;;;;;7.30;4.90;;;;;;;15.20;86.41;99572.80;131073;1263;107684;-78
2023/10/24 12:22:03;;;;;;;8.70;5.30;;;;;;;15.21;85.81;99563.17;131060;1263;108638;-79
2023/10/24 12:25:10;;;;;;;7.50;5.20;;;;;;;15.17;85.86;99559.42;131016;1257;106507;-78
2023/10/24 12:28:16;;;;;;;8.30;5.70;;;;;;;15.09;85.85;99554.77;131043;1254;108033;-78
2023/10/24 12:31:21;;;;;;;8.30;5.20;;;;;;;15.02;85.54;99551.50;130958;1255;106949;-80
2023/10/24 12:34:27;;;;;;;8.10;5.10;;;;;;;14.99;86.08;99546.91;131004;1256;107865;-78
2023/10/24 12:37:32;;;;;;;10.10;5.50;;;;;;;14.98;85.88;99530.40;131023;1256;106908;-78
2023/10/24 12:40:38;;;;;;;6.90;5.50;;;;;;;14.93;85.95;99520.01;131020;1257;108061;-78
2023/10/24 12:43:44;;;;;;;8.70;6.00;;;;;;;14.90;85.88;99521.31;131061;1260;106664;-78
2023/10/24 12:46:49;;;;;;;9.30;6.40;;;;;;;14.86;86.10;99522.24;130737;1257;303340;-78
2023/10/24 12:49:55;;;;;;;7.60;5.90;;;;;;;14.82;86.03;99532.03;131072;1257;107915;-79
2023/10/24 12:53:01;;;;;;;7.70;5.30;;;;;;;14.77;86.07;99525.77;130882;1263;106578;-79
2023/10/24 12:56:08;;;;;;;9.90;5.60;;;;;;;14.74;86.15;99531.97;131109;1264;107255;-79
2023/10/24 12:59:13;;;;;;;7.00;5.60;;;;;;;14.74;86.11;99539.74;131043;1260;107855;-79
2023/10/24 13:02:19;;;;;;;8.10;6.60;;;;;;;14.76;86.19;99535.01;131087;1251;107000;-79
2023/10/24 13:05:25;;;;;;;9.00;6.90;;;;;;;14.80;86.16;99526.46;131076;1255;107683;-81
2023/10/24 13:08:30;;;;;;;8.80;6.70;;;;;;;14.82;86.15;99518.77;130973;1257;107645;-78
2023/10/24 13:11:41;;;;;;;7.80;6.80;;;;;;;14.83;86.18;99516.65;130971;1254;108781;-79
2023/10/24 13:14:47;;;;;;;9.80;7.00;;;;;;;14.84;86.32;99520.23;130958;1261;108654;-78
2023/10/24 13:17:52;;;;;;;9.80;6.80;;;;;;;14.84;86.28;99516.41;130929;1265;106038;-79
2023/10/24 13:20:58;;;;;;;10.80;6.80;;;;;;;14.85;86.34;99513.20;131011;1256;107530;-79
2023/10/24 13:24:04;;;;;;;9.10;6.90;;;;;;;14.88;86.36;99503.38;130943;1261;107457;-79
2023/10/24 13:27:09;;;;;;;9.00;7.30;;;;;;;14.94;86.51;99495.21;131016;1256;107670;-79
2023/10/24 13:30:15;;;;;;;9.10;7.30;;;;;;;15.00;86.38;99490.77;131018;1256;108566;-78
2023/10/24 13:33:21;;;;;;;9.90;7.80;;;;;;;15.02;86.13;99482.80;131012;1256;107655;-78
2023/10/24 13:36:27;;;;;;;9.80;7.20;;;;;;;15.00;85.99;99478.67;131052;1255;108567;-79
2023/10/24 13:39:33;;;;;;;11.90;8.50;;;;;;;14.96;86.09;99485.14;131009;1264;107674;-79
2023/10/24 13:42:38;;;;;;;12.00;8.20;;;;;;;14.88;86.06;99485.27;130976;1254;107816;-79
2023/10/24 13:45:44;;;;;;;12.20;7.80;;;;;;;14.81;86.09;99487.80;130912;1255;108640;-79
2023/10/24 13:48:49;;;;;;;10.90;8.10;;;;;;;14.78;86.11;99489.08;130921;1255;108632;-79
2023/10/24 13:51:55;;;;;;;11.60;8.60;;;;;;;14.77;86.30;99491.14;130993;1251;108438;-80
2023/10/24 13:55:00;;;;;;;10.90;8.50;;;;;;;14.78;86.27;99484.65;130973;1254;107615;-79
2023/10/24 13:58:06;;;;;;;12.00;9.10;;;;;;;14.78;86.26;99477.88;131271;1255;108339;-78
2023/10/24 14:01:12;;;;;;;13.50;9.00;;;;;;;14.73;86.27;99470.33;131037;1254;106966;-78
2023/10/24 14:04:17;;;;;;;12.60;10.20;;;;;;;14.67;86.34;99467.53;131043;1251;108351;-79
2023/10/24 14:07:23;;;;;;;12.40;9.10;;;;;;;14.62;86.40;99466.52;131090;1254;107645;-79